This is the latest recevied weather packets stored in our database for station/object KC9DRE. If no packets are shown the sender has not sent any weather packets the latest 10 day(s).
| Time | Temp. | Humidity | Pressure | Rain* | Wind** | Luminosity | Snow |
|---|---|---|---|---|---|---|---|
| 1787944310 | 30° C | 48% | 1020 hPa | 0 mm | - | 743 W/m² | - |
| 1787944005 | 28.89° C | 54% | 1019.9 hPa | 0 mm | - | 755 W/m² | - |
| 1787943700 | 28.33° C | 54% | 1020.1 hPa | 0 mm | - | 787 W/m² | - |
| 1787943395 | 28.33° C | 55% | 1020.2 hPa | 0 mm | - | 174 W/m² | - |
| 1787943090 | 29.44° C | 53% | 1020.1 hPa | 0 mm | - | 176 W/m² | - |
| 1787942785 | 30.56° C | 52% | 1020.3 hPa | 0 mm | - | 198 W/m² | - |
| 1787942485 | 30.56° C | 50% | 1020.1 hPa | 0 mm | - | 879 W/m² | - |
| 1787942180 | 29.44° C | 52% | 1020.1 hPa | 0 mm | - | 871 W/m² | - |
| 1787941876 | 28.89° C | 51% | 1020.2 hPa | 0 mm | - | 274 W/m² | - |
| 1787941575 | 30° C | 47% | 1020.7 hPa | 0 mm | - | 227 W/m² | - |
| 1787941270 | 30° C | 48% | 1020.5 hPa | 0 mm | - | 847 W/m² | - |
| 1787940969 | 30° C | 49% | 1020.2 hPa | 0 mm | - | 858 W/m² | - |
| 1787940668 | 29.44° C | 55% | 1020.3 hPa | 0 mm | - | 843 W/m² | - |
| 1787940367 | 29.44° C | 54% | 1020.2 hPa | 0 mm | - | 834 W/m² | - |
| 1787940061 | 28.89° C | 55% | 1020.6 hPa | 0 mm | - | 848 W/m² | - |
| 1787939760 | 27.78° C | 58% | 1020.6 hPa | 0 mm | - | 851 W/m² | - |
| 1787939455 | 27.78° C | 56% | 1020.5 hPa | 0 mm | - | 172 W/m² | - |
| 1787939150 | 28.33° C | 56% | 1020.5 hPa | 0 mm | - | 131 W/m² | - |
| 1787938850 | 29.44° C | 53% | 1020.5 hPa | 0 mm | - | 164 W/m² | - |
| 1787938550 | 28.89° C | 57% | 1020.3 hPa | 0 mm | - | 860 W/m² | - |
| 1787938246 | 28.89° C | 56% | 1020.5 hPa | 0 mm | - | 913 W/m² | - |
| 1787937946 | 28.33° C | 57% | 1020.6 hPa | 0 mm | - | 901 W/m² | - |
| 1787937641 | 28.33° C | 58% | 1020.6 hPa | 0 mm | - | 258 W/m² | - |
| 1787937338 | 28.89° C | 53% | 1020.7 hPa | 0 mm | - | 210 W/m² | - |
| 1787937033 | 28.89° C | 55% | 1020.7 hPa | 0 mm | - | 863 W/m² | - |
* Rain latest hour (hover to see other rain measurements)
** Current wind speed in m/s (hover to see current wind gust speed)